createdAt,value
2018-10-12T00:00:21.869Z,8.37
2018-10-12T00:02:57.493Z,9.83
2018-10-12T00:05:33.234Z,8.40
2018-10-12T00:08:08.880Z,8.60
2018-10-12T00:10:44.477Z,8.63
2018-10-12T00:13:20.001Z,9.70
2018-10-12T00:15:55.618Z,9.30
2018-10-12T00:18:31.198Z,8.40
2018-10-12T00:21:06.869Z,8.77
2018-10-12T00:23:42.441Z,8.07
2018-10-12T00:26:18.073Z,9.03
2018-10-12T00:28:53.789Z,9.87
2018-10-12T00:31:29.433Z,9.93
2018-10-12T00:34:04.933Z,9.13
2018-10-12T00:36:40.546Z,8.23
2018-10-12T00:39:16.118Z,9.17
2018-10-12T00:41:51.901Z,9.00
2018-10-12T00:44:27.509Z,8.23
2018-10-12T00:47:03.125Z,9.07
2018-10-12T00:49:38.795Z,12.07
2018-10-12T00:52:14.565Z,8.90
2018-10-12T00:54:50.194Z,7.20
2018-10-12T00:57:25.808Z,8.33
2018-10-12T01:00:01.469Z,6.17
2018-10-12T01:02:37.556Z,8.17
2018-10-12T01:05:13.185Z,8.43
2018-10-12T01:07:48.836Z,7.93
2018-10-12T01:10:24.484Z,8.30
2018-10-12T01:13:00.069Z,7.80
2018-10-12T01:15:35.682Z,7.80
2018-10-12T01:18:11.381Z,9.13
2018-10-12T01:20:46.981Z,7.77
2018-10-12T01:23:22.884Z,7.80
2018-10-12T01:25:58.505Z,8.47
2018-10-12T01:28:34.185Z,8.20
2018-10-12T01:31:09.808Z,8.03
2018-10-12T01:33:45.515Z,7.93
2018-10-12T01:36:21.250Z,8.53
2018-10-12T01:38:56.857Z,8.37
2018-10-12T01:41:32.572Z,9.03
2018-10-12T01:44:08.312Z,7.03
2018-10-12T01:46:44.141Z,6.20
2018-10-12T01:49:19.907Z,11.50
2018-10-12T01:51:55.511Z,7.33
2018-10-12T01:54:31.177Z,7.70
2018-10-12T01:57:07.308Z,7.97
2018-10-12T01:59:42.793Z,7.73
2018-10-12T02:02:18.384Z,7.57
2018-10-12T02:04:53.969Z,6.67
2018-10-12T02:07:29.589Z,8.50
2018-10-12T02:10:05.346Z,9.30
2018-10-12T02:12:41.084Z,9.43
2018-10-12T02:15:16.893Z,6.90
2018-10-12T02:17:52.522Z,8.00
2018-10-12T02:20:28.160Z,7.90
2018-10-12T02:23:03.969Z,7.10
2018-10-12T02:25:39.538Z,7.40
2018-10-12T02:28:15.141Z,7.00
2018-10-12T02:30:50.788Z,7.60
2018-10-12T02:33:26.353Z,8.23
2018-10-12T02:36:01.971Z,8.67
2018-10-12T02:38:37.566Z,8.90
2018-10-12T02:41:13.256Z,9.13
2018-10-12T02:43:49.016Z,9.07
2018-10-12T02:46:24.589Z,7.97
2018-10-12T02:49:00.165Z,8.57
2018-10-12T02:51:35.958Z,8.30
2018-10-12T02:54:11.620Z,9.00
2018-10-12T02:56:47.347Z,8.97
2018-10-12T02:59:22.984Z,8.40
2018-10-12T03:01:58.548Z,8.20
2018-10-12T03:04:34.175Z,6.57
2018-10-12T03:07:09.773Z,8.30
2018-10-12T03:09:45.390Z,8.67
2018-10-12T03:12:21.034Z,7.53
2018-10-12T03:14:56.645Z,7.87
2018-10-12T03:17:32.373Z,8.67
2018-10-12T03:20:07.968Z,6.70
2018-10-12T03:22:43.588Z,9.20
2018-10-12T03:25:19.290Z,7.93
2018-10-12T03:28:11.979Z,10.77
2018-10-12T03:30:47.886Z,7.83
2018-10-12T03:33:23.559Z,6.40
2018-10-12T03:35:59.122Z,7.77
2018-10-12T03:38:34.645Z,8.50
2018-10-12T03:41:10.334Z,7.43
2018-10-12T03:43:45.849Z,7.37
2018-10-12T03:46:21.585Z,7.47
2018-10-12T03:48:57.197Z,9.03
2018-10-12T03:51:32.860Z,7.13
2018-10-12T03:54:08.540Z,7.60
2018-10-12T03:56:44.321Z,7.00
2018-10-12T03:59:20.002Z,7.03
2018-10-12T04:01:55.665Z,8.43
2018-10-12T04:04:31.280Z,9.87
2018-10-12T04:07:06.969Z,7.90
2018-10-12T04:09:42.605Z,6.23
2018-10-12T04:12:18.265Z,7.40
2018-10-12T04:14:53.901Z,6.87
2018-10-12T04:17:29.564Z,6.93
2018-10-12T04:20:05.469Z,7.70
2018-10-12T04:22:41.196Z,5.50
2018-10-12T04:25:16.765Z,7.37
2018-10-12T04:27:52.369Z,7.47
2018-10-12T04:30:27.933Z,7.07
2018-10-12T04:33:03.545Z,7.03
2018-10-12T04:35:39.092Z,5.70
2018-10-12T04:38:14.756Z,7.17
2018-10-12T04:41:07.073Z,8.17
2018-10-12T04:43:43.194Z,7.40
2018-10-12T04:46:22.345Z,7.37
2018-10-12T04:48:58.662Z,5.70
2018-10-12T04:51:39.444Z,9.40
2018-10-12T04:54:15.289Z,7.87
2018-10-12T04:56:51.352Z,9.03
2018-10-12T04:59:26.945Z,7.73
2018-10-12T05:02:02.638Z,8.10
2018-10-12T05:04:38.250Z,7.63
2018-10-12T05:07:13.829Z,8.87
2018-10-12T05:09:49.419Z,5.23
2018-10-12T05:12:25.011Z,7.50
2018-10-12T05:15:00.651Z,7.60
2018-10-12T05:17:36.297Z,6.03
2018-10-12T05:20:11.957Z,6.60
2018-10-12T05:22:47.517Z,8.90
2018-10-12T05:25:23.057Z,8.03
2018-10-12T05:27:58.798Z,7.13
2018-10-12T05:30:34.437Z,7.03
2018-10-12T05:33:10.118Z,7.53
2018-10-12T05:35:45.987Z,6.90
2018-10-12T05:38:22.324Z,8.60
2018-10-12T05:40:58.413Z,7.83
2018-10-12T05:43:34.057Z,7.43
2018-10-12T05:46:09.800Z,10.23
2018-10-12T05:49:02.445Z,8.93
2018-10-12T05:51:38.159Z,7.67
2018-10-12T05:54:14.393Z,7.43
2018-10-12T05:56:50.030Z,8.53
2018-10-12T05:59:25.684Z,8.50
2018-10-12T06:02:01.382Z,8.63
2018-10-12T06:04:37.035Z,9.77
2018-10-12T06:07:12.783Z,8.87
2018-10-12T06:09:48.845Z,9.23
2018-10-12T06:12:24.508Z,6.77
2018-10-12T06:15:00.126Z,6.30
2018-10-12T06:17:35.797Z,9.93
2018-10-12T06:20:11.426Z,6.37
2018-10-12T06:22:47.732Z,7.63
2018-10-12T06:25:23.457Z,7.00
2018-10-12T06:27:59.048Z,6.57
2018-10-12T06:30:34.669Z,7.30
2018-10-12T06:33:10.305Z,7.67
2018-10-12T06:35:45.953Z,7.67
2018-10-12T06:38:21.580Z,7.50
2018-10-12T06:40:57.240Z,7.70
2018-10-12T06:43:32.969Z,7.53
2018-10-12T06:46:08.605Z,9.87
2018-10-12T06:48:44.180Z,8.57
2018-10-12T06:51:19.853Z,7.87
2018-10-12T06:53:55.474Z,5.60
2018-10-12T06:56:32.260Z,8.53
2018-10-12T06:59:07.969Z,8.33
2018-10-12T07:01:43.657Z,6.47
2018-10-12T07:04:20.229Z,7.60
2018-10-12T07:06:55.790Z,8.73
2018-10-12T07:09:31.409Z,10.27
2018-10-12T07:12:07.416Z,8.43
2018-10-12T07:14:43.054Z,8.53
2018-10-12T07:17:18.701Z,9.90
2018-10-12T07:19:54.341Z,8.37
2018-10-12T07:22:30.016Z,6.60
2018-10-12T07:25:05.654Z,7.20
2018-10-12T07:27:41.405Z,8.17
2018-10-12T07:30:16.893Z,6.50
2018-10-12T07:32:52.481Z,9.03
2018-10-12T07:35:28.099Z,7.27
2018-10-12T07:38:03.816Z,7.60
2018-10-12T07:40:39.402Z,8.20
2018-10-12T07:43:15.300Z,7.13
2018-10-12T07:45:51.081Z,6.40
2018-10-12T07:48:26.770Z,7.57
2018-10-12T07:51:02.373Z,7.10
2018-10-12T07:53:38.246Z,6.90
2018-10-12T07:56:14.214Z,5.90
2018-10-12T07:58:49.775Z,7.73
2018-10-12T08:01:25.406Z,8.27
2018-10-12T08:04:01.115Z,9.97
2018-10-12T08:06:36.909Z,7.67
2018-10-12T08:09:12.462Z,7.33
2018-10-12T08:11:48.223Z,8.03
2018-10-12T08:14:23.939Z,7.67
2018-10-12T08:16:59.818Z,7.03
2018-10-12T08:19:35.575Z,6.70
2018-10-12T08:22:11.353Z,7.57
2018-10-12T08:24:47.059Z,6.63
2018-10-12T08:27:22.818Z,7.07
2018-10-12T08:30:00.481Z,7.37
2018-10-12T08:32:37.063Z,8.17
2018-10-12T08:35:12.811Z,6.83
2018-10-12T08:37:48.606Z,8.40
2018-10-12T08:40:24.430Z,8.10
2018-10-12T08:43:00.138Z,6.33
2018-10-12T08:45:35.795Z,5.57
2018-10-12T08:48:11.343Z,4.83
2018-10-12T08:50:46.918Z,6.50
2018-10-12T08:53:22.774Z,5.00
2018-10-12T08:55:58.473Z,5.20
2018-10-12T08:58:34.286Z,4.93
2018-10-12T09:01:10.007Z,5.23
2018-10-12T09:03:45.730Z,5.47
2018-10-12T09:06:21.404Z,5.83
2018-10-12T09:08:57.361Z,4.73
2018-10-12T09:11:32.905Z,4.60
2018-10-12T09:14:08.844Z,3.93
2018-10-12T09:16:44.789Z,5.07
2018-10-12T09:19:20.658Z,3.63
2018-10-12T09:21:56.539Z,5.37
2018-10-12T09:24:32.472Z,4.00
2018-10-12T09:27:08.283Z,4.20
2018-10-12T09:29:44.106Z,3.30
2018-10-12T09:32:19.831Z,3.43
2018-10-12T09:34:55.680Z,3.80
2018-10-12T09:37:31.399Z,2.90
2018-10-12T09:40:07.194Z,3.57
2018-10-12T09:42:43.115Z,2.30
2018-10-12T09:45:18.718Z,2.27
2018-10-12T09:47:54.426Z,2.97
2018-10-12T09:50:30.145Z,4.60
2018-10-12T09:53:05.982Z,5.40
2018-10-12T09:55:41.704Z,2.93
2018-10-12T09:58:17.371Z,3.17
2018-10-12T10:00:58.095Z,5.53
2018-10-12T10:03:38.882Z,6.03
2018-10-12T10:06:14.425Z,2.53
2018-10-12T10:08:50.425Z,3.40
2018-10-12T10:11:26.127Z,3.43
2018-10-12T10:14:01.876Z,3.40
2018-10-12T10:16:37.454Z,3.00
2018-10-12T10:19:13.264Z,2.37
2018-10-12T10:21:49.126Z,2.87
2018-10-12T10:24:24.730Z,2.63
2018-10-12T10:27:00.418Z,2.47
2018-10-12T10:29:35.958Z,2.77
2018-10-12T10:32:11.622Z,2.80
2018-10-12T10:34:47.391Z,2.30
2018-10-12T10:37:23.241Z,2.73
2018-10-12T10:39:59.036Z,2.73
2018-10-12T10:42:34.822Z,3.33
2018-10-12T10:45:10.518Z,3.37
2018-10-12T10:47:46.343Z,2.77
2018-10-12T10:50:22.056Z,2.20
2018-10-12T10:52:57.977Z,5.07
2018-10-12T10:55:33.586Z,4.50
2018-10-12T10:58:10.096Z,3.37
2018-10-12T11:00:45.874Z,2.03
2018-10-12T11:03:21.747Z,2.60
2018-10-12T11:05:57.473Z,20.10
2018-10-12T11:08:33.166Z,7.33
2018-10-12T11:11:09.049Z,6.67
2018-10-12T11:13:44.583Z,2.87
2018-10-12T11:16:20.330Z,2.67
2018-10-12T11:18:56.067Z,2.90
2018-10-12T11:21:31.851Z,2.60
2018-10-12T11:24:07.777Z,7.83
2018-10-12T11:26:43.474Z,4.70
2018-10-12T11:29:19.236Z,5.83
2018-10-12T11:31:55.004Z,4.00
2018-10-12T11:34:30.898Z,2.10
2018-10-12T11:37:06.849Z,4.27
2018-10-12T11:39:42.468Z,2.23
2018-10-12T11:42:18.277Z,2.23
2018-10-12T11:44:53.842Z,4.07
2018-10-12T11:47:29.769Z,3.67
2018-10-12T11:50:05.628Z,3.33
2018-10-12T11:52:41.362Z,3.03
2018-10-12T11:55:17.147Z,2.97
2018-10-12T11:57:52.871Z,4.20
2018-10-12T12:00:28.511Z,1.63
2018-10-12T12:03:04.226Z,4.47
2018-10-12T12:05:40.338Z,2.57
2018-10-12T12:08:16.074Z,3.17
2018-10-12T12:10:51.760Z,3.17
2018-10-12T12:13:27.529Z,2.33
2018-10-12T12:16:03.307Z,3.27
2018-10-12T12:18:39.134Z,2.80
2018-10-12T12:21:14.653Z,1.87
2018-10-12T12:23:50.380Z,2.93
2018-10-12T12:26:26.138Z,4.67
2018-10-12T12:29:02.061Z,4.73
2018-10-12T12:31:37.752Z,3.63
2018-10-12T12:34:13.442Z,2.63
2018-10-12T12:36:49.135Z,4.03
2018-10-12T12:39:24.830Z,2.50
2018-10-12T12:42:00.492Z,2.73
2018-10-12T12:44:36.173Z,3.47
2018-10-12T12:47:11.907Z,2.57
2018-10-12T12:49:47.770Z,1.97
2018-10-12T12:52:23.612Z,3.43
2018-10-12T12:54:59.329Z,4.03
2018-10-12T12:57:35.135Z,5.03
2018-10-12T13:00:10.862Z,2.87
2018-10-12T13:02:46.744Z,2.13
2018-10-12T13:05:22.390Z,1.90
2018-10-12T13:07:58.269Z,2.43
2018-10-12T13:10:34.019Z,2.90
2018-10-12T13:13:09.798Z,3.07
2018-10-12T13:15:45.459Z,2.50
2018-10-12T13:18:21.039Z,2.23
2018-10-12T13:20:56.804Z,4.23
2018-10-12T13:23:32.550Z,3.70
2018-10-12T13:26:08.997Z,3.93
2018-10-12T13:28:44.759Z,3.93
2018-10-12T13:31:20.459Z,4.27
2018-10-12T13:33:56.239Z,4.00
2018-10-12T13:36:31.963Z,2.23
2018-10-12T13:39:11.535Z,4.17
2018-10-12T13:41:47.294Z,2.50
2018-10-12T13:44:23.140Z,2.47
2018-10-12T13:46:58.832Z,2.90
2018-10-12T13:49:34.690Z,2.27
2018-10-12T13:52:10.403Z,4.77
2018-10-12T13:54:46.264Z,2.87
2018-10-12T13:57:22.018Z,2.40
2018-10-12T13:59:57.766Z,4.10
2018-10-12T14:02:33.448Z,4.40
2018-10-12T14:05:09.399Z,2.90
2018-10-12T14:07:44.972Z,3.57
2018-10-12T14:10:20.711Z,2.73
2018-10-12T14:12:56.562Z,4.53
2018-10-12T14:15:32.317Z,2.23
2018-10-12T14:18:08.171Z,2.93
2018-10-12T14:20:43.970Z,2.40
2018-10-12T14:23:19.824Z,1.93
2018-10-12T14:25:55.805Z,4.63
2018-10-12T14:28:31.585Z,2.73
2018-10-12T14:31:07.535Z,3.47
2018-10-12T14:33:43.344Z,3.20
2018-10-12T14:36:18.959Z,2.87
2018-10-12T14:38:55.086Z,2.40
2018-10-12T14:41:30.822Z,4.97
2018-10-12T14:44:06.676Z,4.90
2018-10-12T14:46:42.419Z,3.90
2018-10-12T14:49:18.156Z,6.33
2018-10-12T14:51:54.007Z,2.83
2018-10-12T14:54:29.764Z,2.20
2018-10-12T14:57:09.745Z,2.00
2018-10-12T14:59:45.565Z,2.83
2018-10-12T15:02:21.582Z,2.23
2018-10-12T15:04:57.262Z,2.67
2018-10-12T15:07:33.163Z,2.90
2018-10-12T15:10:09.043Z,3.03
2018-10-12T15:12:44.739Z,3.30
2018-10-12T15:15:22.227Z,3.50
2018-10-12T15:17:58.786Z,2.80
2018-10-12T15:20:34.923Z,3.60
2018-10-12T15:23:10.899Z,2.47
2018-10-12T15:25:46.750Z,5.13
2018-10-12T15:28:22.475Z,5.60
2018-10-12T15:30:58.272Z,4.80
2018-10-12T15:33:34.246Z,4.53
2018-10-12T15:36:10.029Z,3.07
2018-10-12T15:38:46.033Z,3.93
2018-10-12T15:41:22.005Z,2.53
2018-10-12T15:43:57.976Z,3.00
2018-10-12T15:46:33.845Z,4.40
2018-10-12T15:49:09.863Z,2.70
2018-10-12T15:51:45.704Z,1.67
2018-10-12T15:54:21.383Z,6.47
2018-10-12T15:56:57.178Z,4.97
2018-10-12T15:59:33.143Z,2.73
2018-10-12T16:02:09.459Z,2.77
2018-10-12T16:04:46.130Z,3.70
2018-10-12T16:07:22.047Z,2.20
2018-10-12T16:09:57.955Z,2.23
2018-10-12T16:12:34.230Z,2.63
2018-10-12T16:15:10.207Z,6.67
2018-10-12T16:17:46.033Z,3.03
2018-10-12T16:20:21.943Z,3.47
2018-10-12T16:22:58.065Z,4.20
2018-10-12T16:26:02.755Z,3.87
2018-10-12T16:28:38.640Z,5.33
2018-10-12T16:31:14.616Z,4.00
2018-10-12T16:33:50.510Z,5.67
2018-10-12T16:36:26.409Z,3.13
2018-10-12T16:39:02.283Z,2.20
2018-10-12T16:41:38.547Z,2.53
2018-10-12T16:44:14.269Z,5.90
2018-10-12T16:46:50.166Z,5.67
2018-10-12T16:49:25.787Z,2.47
2018-10-12T16:52:01.559Z,2.93
2018-10-12T16:54:37.234Z,1.90
2018-10-12T16:57:13.215Z,4.30
2018-10-12T16:59:48.934Z,2.87
2018-10-12T17:02:24.540Z,2.47
2018-10-12T17:05:00.053Z,4.60
2018-10-12T17:07:36.011Z,6.23
2018-10-12T17:10:11.786Z,6.43
2018-10-12T17:12:47.633Z,7.07
2018-10-12T17:15:23.599Z,3.50
2018-10-12T17:18:00.110Z,17.50
2018-10-12T17:20:35.886Z,4.90
2018-10-12T17:23:11.694Z,4.10
2018-10-12T17:25:47.236Z,4.50
2018-10-12T17:28:22.959Z,4.50
2018-10-12T17:30:58.591Z,4.43
2018-10-12T17:33:34.372Z,3.50
2018-10-12T17:36:10.226Z,3.70
2018-10-12T17:38:45.959Z,3.87
2018-10-12T17:41:22.000Z,3.33
2018-10-12T17:43:58.097Z,4.17
2018-10-12T17:46:33.905Z,4.83
2018-10-12T17:49:09.765Z,4.40
2018-10-12T17:51:45.996Z,4.13
2018-10-12T17:54:21.794Z,7.67
2018-10-12T17:56:57.552Z,6.17
2018-10-12T17:59:33.655Z,4.73
2018-10-12T18:02:09.579Z,4.43
2018-10-12T18:04:45.235Z,7.73
2018-10-12T18:07:21.104Z,2.30
2018-10-12T18:09:56.833Z,4.47
2018-10-12T18:12:32.681Z,2.93
2018-10-12T18:15:11.137Z,5.50
2018-10-12T18:17:46.982Z,4.13
2018-10-12T18:20:22.777Z,3.80
2018-10-12T18:22:58.714Z,7.77
2018-10-12T18:25:34.490Z,9.07
2018-10-12T18:28:10.294Z,3.53
2018-10-12T18:30:46.260Z,2.60
2018-10-12T18:33:22.254Z,2.80
2018-10-12T18:35:58.010Z,5.73
2018-10-12T18:38:33.791Z,6.37
2018-10-12T18:41:09.935Z,6.97
2018-10-12T18:43:45.659Z,5.00
2018-10-12T18:46:21.515Z,6.67
2018-10-12T18:48:57.423Z,5.53
2018-10-12T18:51:33.037Z,4.30
2018-10-12T18:54:08.804Z,4.60
2018-10-12T18:56:44.741Z,3.50
2018-10-12T18:59:20.646Z,3.37
2018-10-12T19:01:56.493Z,4.33
2018-10-12T19:04:32.856Z,4.23
2018-10-12T19:07:08.822Z,5.13
2018-10-12T19:09:44.666Z,2.70
2018-10-12T19:12:20.499Z,4.40
2018-10-12T19:14:56.337Z,4.50
2018-10-12T19:17:32.789Z,5.73
2018-10-12T19:20:09.173Z,5.87
2018-10-12T19:22:45.175Z,3.97
2018-10-12T19:25:20.878Z,5.03
2018-10-12T19:27:56.725Z,2.90
2018-10-12T19:30:32.597Z,2.87
2018-10-12T19:33:08.366Z,8.27
2018-10-12T19:35:44.387Z,4.60
2018-10-12T19:38:20.262Z,2.90
2018-10-12T19:40:56.268Z,3.90
2018-10-12T19:43:32.196Z,4.87
2018-10-12T19:46:08.114Z,5.70
2018-10-12T19:48:44.012Z,5.23
2018-10-12T19:51:19.700Z,4.80
2018-10-12T19:53:55.362Z,6.53
2018-10-12T19:56:31.086Z,3.33
2018-10-12T19:59:07.070Z,6.23
2018-10-12T20:01:43.166Z,4.43
2018-10-12T20:04:19.133Z,5.20
2018-10-12T20:06:54.967Z,4.33
2018-10-12T20:09:30.598Z,4.53
2018-10-12T20:12:06.508Z,5.43
2018-10-12T20:14:42.239Z,4.93
2018-10-12T20:17:17.987Z,8.33
2018-10-12T20:19:53.982Z,4.77
2018-10-12T20:22:29.874Z,4.20
2018-10-12T20:25:05.747Z,4.07
2018-10-12T20:27:41.687Z,4.17
2018-10-12T20:30:17.363Z,6.43
2018-10-12T20:32:53.184Z,4.70
2018-10-12T20:35:29.180Z,5.13
2018-10-12T20:38:04.802Z,7.93
2018-10-12T20:40:40.684Z,6.77
2018-10-12T20:43:16.554Z,5.07
2018-10-12T20:45:52.281Z,6.20
2018-10-12T20:48:28.268Z,14.43
2018-10-12T20:51:03.947Z,10.73
2018-10-12T20:53:39.760Z,5.63
2018-10-12T20:56:15.418Z,5.67
2018-10-12T20:58:51.238Z,6.30
2018-10-12T21:01:27.004Z,6.23
2018-10-12T21:04:03.170Z,4.10
2018-10-12T21:06:39.164Z,4.93
2018-10-12T21:09:14.806Z,6.00
2018-10-12T21:11:50.726Z,5.97
2018-10-12T21:14:26.475Z,8.03
2018-10-12T21:17:02.223Z,7.60
2018-10-12T21:19:37.951Z,4.40
2018-10-12T21:22:13.786Z,5.63
2018-10-12T21:24:49.806Z,6.97
2018-10-12T21:27:25.665Z,5.87
2018-10-12T21:30:01.551Z,5.50
2018-10-12T21:32:37.358Z,6.33
2018-10-12T21:35:13.188Z,5.80
2018-10-12T21:37:49.373Z,8.73
2018-10-12T21:40:25.341Z,6.87
2018-10-12T21:43:01.240Z,6.17
2018-10-12T21:45:37.236Z,5.33
2018-10-12T21:48:13.075Z,3.83
2018-10-12T21:50:48.923Z,4.60
2018-10-12T21:53:24.774Z,3.27
2018-10-12T21:56:00.656Z,2.73
2018-10-12T21:58:36.274Z,6.93
2018-10-12T22:01:12.138Z,7.60
2018-10-12T22:03:48.012Z,4.93
2018-10-12T22:06:23.902Z,5.80
2018-10-12T22:09:07.335Z,5.57
2018-10-12T22:11:43.365Z,5.17
2018-10-12T22:14:19.131Z,5.20
2018-10-12T22:16:54.962Z,7.40
2018-10-12T22:19:30.887Z,3.07
2018-10-12T22:22:06.771Z,5.20
2018-10-12T22:24:42.607Z,6.93
2018-10-12T22:27:18.494Z,7.50
2018-10-12T22:29:54.288Z,5.70
2018-10-12T22:32:32.190Z,3.50
2018-10-12T22:35:07.844Z,5.87
2018-10-12T22:37:43.802Z,4.57
2018-10-12T22:40:19.544Z,4.13
2018-10-12T22:42:56.150Z,6.10
2018-10-12T22:45:32.087Z,3.90
2018-10-12T22:48:07.925Z,6.67
2018-10-12T22:50:43.710Z,3.07
2018-10-12T22:53:19.326Z,7.57
2018-10-12T22:55:55.153Z,14.80
2018-10-12T22:58:31.113Z,10.53
2018-10-12T23:01:06.775Z,12.93
2018-10-12T23:03:42.723Z,8.90
2018-10-12T23:06:18.530Z,10.60
2018-10-12T23:08:54.420Z,10.80
2018-10-12T23:11:30.134Z,9.43
2018-10-12T23:14:06.178Z,7.30
2018-10-12T23:16:42.222Z,5.87
2018-10-12T23:19:18.018Z,5.77
2018-10-12T23:21:53.864Z,4.90
2018-10-12T23:24:30.417Z,4.13
2018-10-12T23:27:06.470Z,5.17
2018-10-12T23:29:42.280Z,3.80
2018-10-12T23:32:18.302Z,4.10
2018-10-12T23:34:54.003Z,6.50
2018-10-12T23:37:29.771Z,3.37
2018-10-12T23:40:05.442Z,4.10
2018-10-12T23:42:41.171Z,5.83
2018-10-12T23:45:17.127Z,6.40
2018-10-12T23:47:52.841Z,3.83
2018-10-12T23:50:28.534Z,5.87
2018-10-12T23:53:04.319Z,5.77
2018-10-12T23:55:39.998Z,5.47
2018-10-12T23:58:15.781Z,6.10
